CheckWX is a tool to help pilots better visualize weather data.  It is not intended as a substitute for an official pre-flight weather briefing.

12:19:43 UTC

PGRO TAF
Benjamin Taisacan Manglona International Airport
Rota Island, North Mariana Islands
PGRO 210523Z 2106/2206 09011KT P6SM SCT015

Apr-21@
06:00 UTC

Apr-21 @ 06:00 UTC

Apr-22@
06:00 UTC

Apr-22 @ 06:00 UTC

PGRO 210523Z 2106/2206 09011KT P6SM SCT015
Wind
  • 090° at 11 KTS
Cloud Levels
  • Scattered at 1,500' AGL